createdAt,value
2023-05-06T00:00:27.582Z,16.90
2023-05-06T00:02:55.356Z,16.80
2023-05-06T00:05:22.713Z,16.80
2023-05-06T00:07:49.584Z,16.80
2023-05-06T00:10:16.985Z,16.80
2023-05-06T00:12:44.037Z,16.70
2023-05-06T00:15:11.620Z,16.70
2023-05-06T00:17:38.872Z,16.70
2023-05-06T00:20:06.721Z,16.60
2023-05-06T00:22:34.382Z,16.60
2023-05-06T00:25:01.395Z,16.60
2023-05-06T00:27:28.579Z,16.50
2023-05-06T00:29:55.648Z,16.50
2023-05-06T00:32:22.552Z,16.50
2023-05-06T00:34:49.560Z,16.50
2023-05-06T00:37:16.481Z,16.40
2023-05-06T00:39:43.395Z,16.50
2023-05-06T00:42:10.394Z,16.40
2023-05-06T00:44:37.476Z,16.40
2023-05-06T00:47:05.009Z,16.40
2023-05-06T00:49:32.326Z,16.40
2023-05-06T00:51:59.956Z,16.40
2023-05-06T00:54:27.730Z,16.30
2023-05-06T00:56:55.144Z,16.40
2023-05-06T00:59:23.176Z,16.30
2023-05-06T01:01:52.213Z,16.40
2023-05-06T01:04:19.416Z,16.40
2023-05-06T01:06:58.544Z,16.30
2023-05-06T01:09:39.311Z,16.30
2023-05-06T01:12:16.552Z,16.30
2023-05-06T01:15:06.671Z,16.40
2023-05-06T01:17:36.578Z,16.30
2023-05-06T01:20:06.385Z,16.30
2023-05-06T01:22:36.937Z,16.30
2023-05-06T01:25:04.057Z,16.30
2023-05-06T01:27:31.022Z,16.30
2023-05-06T01:29:59.614Z,16.30
2023-05-06T01:32:34.236Z,16.20
2023-05-06T01:35:06.347Z,16.20
2023-05-06T01:38:07.493Z,16.10
2023-05-06T01:40:36.060Z,16.10
2023-05-06T01:43:06.070Z,16.10
2023-05-06T01:45:36.406Z,16.10
2023-05-06T01:48:05.015Z,16.00
2023-05-06T01:50:32.928Z,16.00
2023-05-06T01:53:02.473Z,16.00
2023-05-06T01:55:29.668Z,16.00
2023-05-06T01:57:56.824Z,15.90
2023-05-06T02:00:26.656Z,15.90
2023-05-06T02:02:53.706Z,15.90
2023-05-06T02:05:20.867Z,15.80
2023-05-06T02:07:52.212Z,15.80
2023-05-06T02:10:19.901Z,15.80
2023-05-06T02:12:52.151Z,15.80
2023-05-06T02:15:19.253Z,15.70
2023-05-06T02:17:46.273Z,15.70
2023-05-06T02:20:13.391Z,15.70
2023-05-06T02:22:40.591Z,15.70
2023-05-06T02:25:08.619Z,15.60
2023-05-06T02:27:35.903Z,15.60
2023-05-06T02:30:03.564Z,15.60
2023-05-06T02:32:30.495Z,15.60
2023-05-06T02:34:57.563Z,15.60
2023-05-06T02:37:24.483Z,15.60
2023-05-06T02:39:51.453Z,15.60
2023-05-06T02:42:18.493Z,15.60
2023-05-06T02:44:46.187Z,15.50
2023-05-06T02:47:13.177Z,15.50
2023-05-06T02:49:40.097Z,15.50
2023-05-06T02:52:06.989Z,15.50
2023-05-06T02:54:33.994Z,15.50
2023-05-06T02:57:01.482Z,15.50
2023-05-06T02:59:28.466Z,15.40
2023-05-06T03:01:55.384Z,15.40
2023-05-06T03:04:22.507Z,15.40
2023-05-06T03:06:49.606Z,15.40
2023-05-06T03:09:16.580Z,15.40
2023-05-06T03:11:43.492Z,15.40
2023-05-06T03:14:10.610Z,15.40
2023-05-06T03:16:37.851Z,15.30
2023-05-06T03:19:04.953Z,15.30
2023-05-06T03:21:33.397Z,15.30
2023-05-06T03:24:00.441Z,15.30
2023-05-06T03:26:29.372Z,15.30
2023-05-06T03:28:57.065Z,15.30
2023-05-06T03:31:24.934Z,15.20
2023-05-06T03:33:53.121Z,15.20
2023-05-06T03:36:23.945Z,15.20
2023-05-06T03:38:52.566Z,15.20
2023-05-06T03:41:19.777Z,15.20
2023-05-06T03:43:47.329Z,15.10
2023-05-06T03:46:16.816Z,15.10
2023-05-06T03:48:44.020Z,15.10
2023-05-06T03:51:14.392Z,15.10
2023-05-06T03:53:41.973Z,15.00
2023-05-06T03:56:09.110Z,15.00
2023-05-06T03:58:37.275Z,15.00
2023-05-06T04:01:06.428Z,15.00
2023-05-06T04:03:33.770Z,15.00
2023-05-06T04:06:01.498Z,15.00
2023-05-06T04:08:28.481Z,15.00
2023-05-06T04:10:55.869Z,15.00
2023-05-06T04:13:28.003Z,15.00
2023-05-06T04:15:58.450Z,15.00
2023-05-06T04:18:32.802Z,15.10
2023-05-06T04:21:04.178Z,15.10
2023-05-06T04:23:34.163Z,15.10
2023-05-06T04:26:01.321Z,15.10
2023-05-06T04:28:30.753Z,15.20
2023-05-06T04:30:57.756Z,15.20
2023-05-06T04:33:33.467Z,15.20
2023-05-06T04:36:03.525Z,15.20
2023-05-06T04:38:32.927Z,15.20
2023-05-06T04:41:00.587Z,15.20
2023-05-06T04:43:27.851Z,15.20
2023-05-06T04:46:01.760Z,15.30
2023-05-06T04:48:32.732Z,15.30
2023-05-06T04:51:01.039Z,15.40
2023-05-06T04:53:28.186Z,15.50
2023-05-06T04:55:55.989Z,15.50
2023-05-06T04:58:23.381Z,15.60
2023-05-06T05:00:50.829Z,15.60
2023-05-06T05:03:17.938Z,15.70
2023-05-06T05:05:45.071Z,15.70
2023-05-06T05:08:16.714Z,15.80
2023-05-06T05:10:43.744Z,15.80
2023-05-06T05:13:14.135Z,15.90
2023-05-06T05:15:42.619Z,16.00
2023-05-06T05:18:10.039Z,16.10
2023-05-06T05:20:37.209Z,16.10
2023-05-06T05:23:06.060Z,16.20
2023-05-06T05:25:33.715Z,16.20
2023-05-06T05:28:00.628Z,16.30
2023-05-06T05:30:28.793Z,16.40
2023-05-06T05:32:56.291Z,16.50
2023-05-06T05:35:23.337Z,16.60
2023-05-06T05:37:52.810Z,16.80
2023-05-06T05:40:20.339Z,16.90
2023-05-06T05:42:51.023Z,17.10
2023-05-06T05:45:24.921Z,17.10
2023-05-06T05:47:53.823Z,17.20
2023-05-06T05:50:21.931Z,17.30
2023-05-06T05:52:49.808Z,17.40
2023-05-06T05:55:17.537Z,17.40
2023-05-06T05:57:46.758Z,17.40
2023-05-06T06:00:14.714Z,17.50
2023-05-06T06:02:44.480Z,17.60
2023-05-06T06:05:13.751Z,17.60
2023-05-06T06:07:40.805Z,17.70
2023-05-06T06:10:08.744Z,17.80
2023-05-06T06:12:35.850Z,17.80
2023-05-06T06:15:06.333Z,18.00
2023-05-06T06:17:33.598Z,18.00
2023-05-06T06:20:01.898Z,18.20
2023-05-06T06:22:28.919Z,18.30
2023-05-06T06:24:56.900Z,18.40
2023-05-06T06:27:23.999Z,18.50
2023-05-06T06:29:51.572Z,18.60
2023-05-06T06:32:19.547Z,18.70
2023-05-06T06:34:46.470Z,18.80
2023-05-06T06:37:13.475Z,19.00
2023-05-06T06:39:40.355Z,19.20
2023-05-06T06:42:07.308Z,19.40
2023-05-06T06:44:39.401Z,19.50
2023-05-06T06:47:06.392Z,19.70
2023-05-06T06:49:33.290Z,19.80
2023-05-06T06:52:00.329Z,20.00
2023-05-06T06:54:27.261Z,20.20
2023-05-06T06:56:56.125Z,20.30
2023-05-06T06:59:23.349Z,20.50
2023-05-06T07:01:51.126Z,20.70
2023-05-06T07:04:18.056Z,20.90
2023-05-06T07:06:45.224Z,21.00
2023-05-06T07:09:12.156Z,21.20
2023-05-06T07:11:39.352Z,21.30
2023-05-06T07:14:06.939Z,21.40
2023-05-06T07:16:33.978Z,21.60
2023-05-06T07:19:01.420Z,21.70
2023-05-06T07:21:28.582Z,21.80
2023-05-06T07:23:55.650Z,22.00
2023-05-06T07:26:22.614Z,22.20
2023-05-06T07:28:49.495Z,22.30
2023-05-06T07:31:18.000Z,22.40
2023-05-06T07:33:44.869Z,22.50
2023-05-06T07:36:11.869Z,22.50
2023-05-06T07:38:38.737Z,22.60
2023-05-06T07:41:05.657Z,22.70
2023-05-06T07:43:32.530Z,22.70
2023-05-06T07:46:03.011Z,22.80
2023-05-06T07:48:30.848Z,22.80
2023-05-06T07:50:57.985Z,22.90
2023-05-06T07:53:25.048Z,22.90
2023-05-06T07:55:52.712Z,23.10
2023-05-06T07:58:19.683Z,23.20
2023-05-06T08:00:46.558Z,23.30
2023-05-06T08:03:13.596Z,23.30
2023-05-06T08:05:40.676Z,23.50
2023-05-06T08:08:07.718Z,23.60
2023-05-06T08:10:34.569Z,23.70
2023-05-06T08:13:01.627Z,23.90
2023-05-06T08:15:28.787Z,23.90
2023-05-06T08:17:56.657Z,24.00
2023-05-06T08:20:24.567Z,24.10
2023-05-06T08:22:51.515Z,24.10
2023-05-06T08:25:18.408Z,24.20
2023-05-06T08:27:45.895Z,24.30
2023-05-06T08:30:13.354Z,24.40
2023-05-06T08:32:40.404Z,24.50
2023-05-06T08:35:07.999Z,24.60
2023-05-06T08:37:35.093Z,24.70
2023-05-06T08:40:02.009Z,24.80
2023-05-06T08:42:30.937Z,25.00
2023-05-06T08:44:59.671Z,25.10
2023-05-06T08:47:26.745Z,25.20
2023-05-06T08:49:53.805Z,25.20
2023-05-06T08:52:21.565Z,25.30
2023-05-06T08:54:51.792Z,25.40
2023-05-06T08:57:19.200Z,25.50
2023-05-06T08:59:46.341Z,25.60
2023-05-06T09:02:13.550Z,25.60
2023-05-06T09:04:41.041Z,25.60
2023-05-06T09:07:08.525Z,25.60
2023-05-06T09:09:35.922Z,25.70
2023-05-06T09:12:03.208Z,25.70
2023-05-06T09:14:30.083Z,25.80
2023-05-06T09:16:57.119Z,25.90
2023-05-06T09:19:25.795Z,26.00
2023-05-06T09:21:53.143Z,26.10
2023-05-06T09:24:20.653Z,26.30
2023-05-06T09:26:47.998Z,26.40
2023-05-06T09:29:14.996Z,26.60
2023-05-06T09:31:46.604Z,26.80
2023-05-06T09:34:15.045Z,27.00
2023-05-06T09:36:42.373Z,27.10
2023-05-06T09:39:09.989Z,27.10
2023-05-06T09:41:37.490Z,27.20
2023-05-06T09:44:04.968Z,27.20
2023-05-06T09:46:32.884Z,27.40
2023-05-06T09:49:00.477Z,27.50
2023-05-06T09:51:28.611Z,27.50
2023-05-06T09:53:57.805Z,27.50
2023-05-06T09:56:26.102Z,27.50
2023-05-06T09:58:55.817Z,27.60
2023-05-06T10:01:35.477Z,27.60
2023-05-06T10:04:09.452Z,27.70
2023-05-06T10:06:39.795Z,27.80
2023-05-06T10:09:08.224Z,28.00
2023-05-06T10:11:36.248Z,28.00
2023-05-06T10:14:04.322Z,28.10
2023-05-06T10:16:33.742Z,28.10
2023-05-06T10:19:03.869Z,28.20
2023-05-06T10:21:34.496Z,28.30
2023-05-06T10:24:09.305Z,28.30
2023-05-06T10:26:37.806Z,28.30
2023-05-06T10:29:09.725Z,28.40
2023-05-06T10:31:43.553Z,28.40
2023-05-06T10:34:10.979Z,28.50
2023-05-06T10:36:40.194Z,28.50
2023-05-06T10:39:10.230Z,28.50
2023-05-06T10:41:37.731Z,28.50
2023-05-06T10:44:06.055Z,28.60
2023-05-06T10:46:52.939Z,28.70
2023-05-06T10:49:20.953Z,28.70
2023-05-06T10:52:13.835Z,28.80
2023-05-06T10:54:51.383Z,28.80
2023-05-06T10:57:18.518Z,28.70
2023-05-06T10:59:47.118Z,28.70
2023-05-06T11:02:16.668Z,28.60
2023-05-06T11:04:51.070Z,28.60
2023-05-06T11:07:24.362Z,28.50
2023-05-06T11:10:02.488Z,28.40
2023-05-06T11:12:58.872Z,28.40
2023-05-06T11:15:39.678Z,28.50
2023-05-06T11:18:28.047Z,28.60
2023-05-06T11:21:00.994Z,28.60
2023-05-06T11:23:43.324Z,28.50
2023-05-06T11:26:11.591Z,28.50
2023-05-06T11:28:39.557Z,28.50
2023-05-06T11:31:07.911Z,28.50
2023-05-06T11:33:36.769Z,28.50
2023-05-06T11:36:04.724Z,28.50
2023-05-06T11:38:45.685Z,28.50
2023-05-06T11:41:13.123Z,28.60
2023-05-06T11:43:40.238Z,28.70
2023-05-06T11:46:07.492Z,28.80
2023-05-06T11:48:34.407Z,28.90
2023-05-06T11:51:01.394Z,29.00
2023-05-06T11:53:30.056Z,29.20
2023-05-06T11:55:56.953Z,29.30
2023-05-06T11:58:28.738Z,29.30
2023-05-06T12:00:57.710Z,29.30
2023-05-06T12:03:26.219Z,29.20
2023-05-06T12:05:53.597Z,29.10
2023-05-06T12:08:41.202Z,29.00
2023-05-06T12:11:09.003Z,28.80
2023-05-06T12:13:37.684Z,28.80
2023-05-06T12:16:07.814Z,28.80
2023-05-06T12:18:34.880Z,28.90
2023-05-06T12:21:07.366Z,29.00
2023-05-06T12:23:34.325Z,29.10
2023-05-06T12:26:04.065Z,29.20
2023-05-06T12:28:32.489Z,29.20
2023-05-06T12:30:59.927Z,29.20
2023-05-06T12:33:26.818Z,29.30
2023-05-06T12:35:57.038Z,29.20
2023-05-06T12:38:23.973Z,29.10
2023-05-06T12:40:55.096Z,29.00
2023-05-06T12:43:32.802Z,29.00
2023-05-06T12:46:07.578Z,29.10
2023-05-06T12:48:35.498Z,29.10
2023-05-06T12:51:20.981Z,29.20
2023-05-06T12:53:48.076Z,29.20
2023-05-06T12:56:14.925Z,29.20
2023-05-06T12:58:41.837Z,29.30
2023-05-06T13:01:08.761Z,29.30
2023-05-06T13:03:40.990Z,29.30
2023-05-06T13:06:08.070Z,29.20
2023-05-06T13:08:35.249Z,29.20
2023-05-06T13:11:02.603Z,29.20
2023-05-06T13:13:29.730Z,29.20
2023-05-06T13:15:57.104Z,29.20
2023-05-06T13:18:23.982Z,29.20
2023-05-06T13:20:51.831Z,29.20
2023-05-06T13:23:19.667Z,29.20
2023-05-06T13:26:02.810Z,29.20
2023-05-06T13:28:32.128Z,29.10
2023-05-06T13:30:59.076Z,29.00
2023-05-06T13:33:26.082Z,28.80
2023-05-06T13:35:53.084Z,28.60
2023-05-06T13:38:20.060Z,28.50
2023-05-06T13:40:50.444Z,28.50
2023-05-06T13:43:18.303Z,28.50
2023-05-06T13:45:45.558Z,28.40
2023-05-06T13:48:13.510Z,28.40
2023-05-06T13:50:46.140Z,28.40
2023-05-06T13:53:14.087Z,28.40
2023-05-06T13:55:42.721Z,28.50
2023-05-06T13:58:09.920Z,28.50
2023-05-06T14:00:36.774Z,28.50
2023-05-06T14:03:04.389Z,28.50
2023-05-06T14:05:32.265Z,28.60
2023-05-06T14:07:59.215Z,28.60
2023-05-06T14:10:26.190Z,28.60
2023-05-06T14:12:53.171Z,28.50
2023-05-06T14:15:20.202Z,28.50
2023-05-06T14:17:47.169Z,28.40
2023-05-06T14:20:14.157Z,28.30
2023-05-06T14:22:41.641Z,28.30
2023-05-06T14:25:09.418Z,28.20
2023-05-06T14:27:37.354Z,28.20
2023-05-06T14:30:08.207Z,28.20
2023-05-06T14:32:36.398Z,28.20
2023-05-06T14:35:04.506Z,28.10
2023-05-06T14:37:31.422Z,28.10
2023-05-06T14:39:58.342Z,28.10
2023-05-06T14:42:25.315Z,28.10
2023-05-06T14:44:52.187Z,28.00
2023-05-06T14:47:19.079Z,28.00
2023-05-06T14:49:46.040Z,27.90
2023-05-06T14:52:13.178Z,27.90
2023-05-06T14:54:43.065Z,27.80
2023-05-06T14:57:10.702Z,27.80
2023-05-06T14:59:38.615Z,27.70
2023-05-06T15:02:08.853Z,27.70
2023-05-06T15:04:36.872Z,27.60
2023-05-06T15:07:04.434Z,27.70
2023-05-06T15:09:31.468Z,27.70
2023-05-06T15:11:58.505Z,27.60
2023-05-06T15:14:25.517Z,27.50
2023-05-06T15:16:57.182Z,27.40
2023-05-06T15:19:24.846Z,27.40
2023-05-06T15:21:51.792Z,27.30
2023-05-06T15:24:18.764Z,27.30
2023-05-06T15:26:45.982Z,27.20
2023-05-06T15:29:13.104Z,27.20
2023-05-06T15:31:40.958Z,27.20
2023-05-06T15:34:09.692Z,27.20
2023-05-06T15:36:36.957Z,27.20
2023-05-06T15:39:04.273Z,27.20
2023-05-06T15:41:33.409Z,27.20
2023-05-06T15:44:01.904Z,27.20
2023-05-06T15:46:30.572Z,27.10
2023-05-06T15:49:17.837Z,27.10
2023-05-06T15:51:45.065Z,27.10
2023-05-06T15:54:12.058Z,27.00
2023-05-06T15:56:41.328Z,26.90
2023-05-06T15:59:08.814Z,26.90
2023-05-06T16:02:19.046Z,26.90
2023-05-06T16:04:24.350Z,26.90
2023-05-06T16:06:51.596Z,26.80
2023-05-06T16:09:18.523Z,26.80
2023-05-06T16:11:45.347Z,26.80
2023-05-06T16:14:12.416Z,26.70
2023-05-06T16:16:39.442Z,26.60
2023-05-06T16:19:06.993Z,26.50
2023-05-06T16:21:34.510Z,26.50
2023-05-06T16:24:01.462Z,26.40
2023-05-06T16:26:28.347Z,26.40
2023-05-06T16:28:55.361Z,26.40
2023-05-06T16:31:22.246Z,26.30
2023-05-06T16:33:49.395Z,26.30
2023-05-06T16:36:16.414Z,26.30
2023-05-06T16:38:43.313Z,26.30
2023-05-06T16:41:10.171Z,26.30
2023-05-06T16:43:37.154Z,26.30
2023-05-06T16:46:04.077Z,26.20
2023-05-06T16:48:31.106Z,26.20
2023-05-06T16:50:58.708Z,26.20
2023-05-06T16:53:27.819Z,26.20
2023-05-06T16:55:55.545Z,26.10
2023-05-06T16:58:22.556Z,26.10
2023-05-06T17:00:52.549Z,26.00
2023-05-06T17:03:19.713Z,26.00
2023-05-06T17:05:47.095Z,25.90
2023-05-06T17:08:16.270Z,25.90
2023-05-06T17:10:43.666Z,25.80
2023-05-06T17:13:10.955Z,25.80
2023-05-06T17:15:37.950Z,25.70
2023-05-06T17:18:05.075Z,25.70
2023-05-06T17:20:33.683Z,25.70
2023-05-06T17:23:07.725Z,25.60
2023-05-06T17:25:34.599Z,25.60
2023-05-06T17:28:01.766Z,25.50
2023-05-06T17:30:28.589Z,25.50
2023-05-06T17:32:55.724Z,25.40
2023-05-06T17:35:22.800Z,25.40
2023-05-06T17:37:49.774Z,25.30
2023-05-06T17:40:16.814Z,25.20
2023-05-06T17:42:43.689Z,25.20
2023-05-06T17:45:11.269Z,25.10
2023-05-06T17:47:38.720Z,25.00
2023-05-06T17:50:05.990Z,25.00
2023-05-06T17:52:33.053Z,24.80
2023-05-06T17:55:15.044Z,24.80
2023-05-06T17:57:43.268Z,24.60
2023-05-06T18:00:11.496Z,24.50
2023-05-06T18:02:42.850Z,24.40
2023-05-06T18:05:10.343Z,24.30
2023-05-06T18:07:37.474Z,24.20
2023-05-06T18:10:04.725Z,24.10
2023-05-06T18:12:31.973Z,23.90
2023-05-06T18:14:58.997Z,23.90
2023-05-06T18:17:26.045Z,23.80
2023-05-06T18:19:52.987Z,23.70
2023-05-06T18:22:19.924Z,23.60
2023-05-06T18:24:46.844Z,23.50
2023-05-06T18:27:13.704Z,23.40
2023-05-06T18:29:41.463Z,23.30
2023-05-06T18:32:08.573Z,23.20
2023-05-06T18:34:35.738Z,23.10
2023-05-06T18:37:02.770Z,23.10
2023-05-06T18:39:29.766Z,23.00
2023-05-06T18:41:56.736Z,22.90
2023-05-06T18:44:24.359Z,22.80
2023-05-06T18:46:51.329Z,22.70
2023-05-06T18:49:18.272Z,22.60
2023-05-06T18:51:45.501Z,22.50
2023-05-06T18:54:14.133Z,22.50
2023-05-06T18:56:43.986Z,22.40
2023-05-06T18:59:11.979Z,22.30
2023-05-06T19:01:39.491Z,22.20
2023-05-06T19:04:06.563Z,22.20
2023-05-06T19:06:33.628Z,22.10
2023-05-06T19:09:01.171Z,22.10
2023-05-06T19:11:28.043Z,22.00
2023-05-06T19:13:55.014Z,21.90
2023-05-06T19:16:21.906Z,21.80
2023-05-06T19:18:48.894Z,21.80
2023-05-06T19:21:15.952Z,21.70
2023-05-06T19:23:42.904Z,21.70
2023-05-06T19:26:11.266Z,21.60
2023-05-06T19:28:39.463Z,21.50
2023-05-06T19:31:09.385Z,21.50
2023-05-06T19:33:40.312Z,21.40
2023-05-06T19:36:07.498Z,21.30
2023-05-06T19:38:34.535Z,21.30
2023-05-06T19:41:01.807Z,21.20
2023-05-06T19:43:28.691Z,21.20
2023-05-06T19:45:56.066Z,21.10
2023-05-06T19:48:23.865Z,21.10
2023-05-06T19:50:53.745Z,21.00
2023-05-06T19:53:22.734Z,21.00
2023-05-06T19:55:49.836Z,21.00
2023-05-06T19:58:17.330Z,20.90
2023-05-06T20:00:45.364Z,20.90
2023-05-06T20:03:12.867Z,20.80
2023-05-06T20:05:39.865Z,20.80
2023-05-06T20:08:10.884Z,20.70
2023-05-06T20:10:38.690Z,20.70
2023-05-06T20:13:06.954Z,20.60
2023-05-06T20:15:35.351Z,20.60
2023-05-06T20:18:02.367Z,20.60
2023-05-06T20:20:34.251Z,20.60
2023-05-06T20:23:01.999Z,20.60
2023-05-06T20:25:29.853Z,20.50
2023-05-06T20:27:57.776Z,20.50
2023-05-06T20:30:25.681Z,20.50
2023-05-06T20:32:52.696Z,20.50
2023-05-06T20:35:19.724Z,20.40
2023-05-06T20:37:46.893Z,20.40
2023-05-06T20:40:14.612Z,20.40
2023-05-06T20:42:41.617Z,20.30
2023-05-06T20:45:09.389Z,20.30
2023-05-06T20:47:36.703Z,20.30
2023-05-06T20:50:03.756Z,20.20
2023-05-06T20:52:30.745Z,20.20
2023-05-06T20:54:58.245Z,20.20
2023-05-06T20:57:25.415Z,20.10
2023-05-06T20:59:52.615Z,20.10
2023-05-06T21:02:19.748Z,20.10
2023-05-06T21:04:46.808Z,20.00
2023-05-06T21:07:13.880Z,20.00
2023-05-06T21:09:40.818Z,19.90
2023-05-06T21:12:07.749Z,19.90
2023-05-06T21:14:34.686Z,19.90
2023-05-06T21:17:01.711Z,19.80
2023-05-06T21:19:28.604Z,19.70
2023-05-06T21:21:56.722Z,19.70
2023-05-06T21:24:23.885Z,19.60
2023-05-06T21:26:51.642Z,19.60
2023-05-06T21:29:18.517Z,19.60
2023-05-06T21:31:45.466Z,19.60
2023-05-06T21:34:12.368Z,19.50
2023-05-06T21:36:39.345Z,19.40
2023-05-06T21:39:07.945Z,19.40
2023-05-06T21:41:36.088Z,19.40
2023-05-06T21:44:07.815Z,19.30
2023-05-06T21:46:35.967Z,19.20
2023-05-06T21:49:02.855Z,19.20
2023-05-06T21:51:34.662Z,19.10
2023-05-06T21:54:02.551Z,19.10
2023-05-06T21:56:30.064Z,19.00
2023-05-06T21:58:56.976Z,18.90
2023-05-06T22:01:27.781Z,18.90
2023-05-06T22:03:54.975Z,18.80
2023-05-06T22:06:22.716Z,18.80
2023-05-06T22:08:49.689Z,18.70
2023-05-06T22:11:17.039Z,18.70
2023-05-06T22:13:44.002Z,18.70
2023-05-06T22:16:11.038Z,18.60
2023-05-06T22:18:41.292Z,18.60
2023-05-06T22:21:09.609Z,18.60
2023-05-06T22:23:36.979Z,18.60
2023-05-06T22:26:03.935Z,18.50
2023-05-06T22:28:30.969Z,18.50
2023-05-06T22:30:57.922Z,18.50
2023-05-06T22:33:26.477Z,18.40
2023-05-06T22:35:53.764Z,18.40
2023-05-06T22:38:21.164Z,18.40
2023-05-06T22:40:48.081Z,18.40
2023-05-06T22:43:15.107Z,18.30
2023-05-06T22:45:42.235Z,18.30
2023-05-06T22:48:09.224Z,18.30
2023-05-06T22:50:36.548Z,18.30
2023-05-06T22:53:13.699Z,18.30
2023-05-06T22:55:42.216Z,18.30
2023-05-06T22:58:09.149Z,18.20
2023-05-06T23:00:36.584Z,18.20
2023-05-06T23:03:03.660Z,18.20
2023-05-06T23:05:30.726Z,18.20
2023-05-06T23:07:57.607Z,18.10
2023-05-06T23:10:24.659Z,18.20
2023-05-06T23:12:51.694Z,18.20
2023-05-06T23:15:18.745Z,18.20
2023-05-06T23:17:45.781Z,18.20
2023-05-06T23:20:12.951Z,18.20
2023-05-06T23:22:39.943Z,18.20
2023-05-06T23:25:09.230Z,18.20
2023-05-06T23:27:39.302Z,18.20
2023-05-06T23:30:08.872Z,18.20
2023-05-06T23:32:36.470Z,18.20
2023-05-06T23:35:04.877Z,18.30
2023-05-06T23:37:31.832Z,18.30
2023-05-06T23:39:58.872Z,18.20
2023-05-06T23:42:26.274Z,18.20
2023-05-06T23:44:53.559Z,18.20
2023-05-06T23:47:20.475Z,18.20
2023-05-06T23:49:47.657Z,18.20
2023-05-06T23:52:14.674Z,18.20
2023-05-06T23:54:41.643Z,18.20
2023-05-06T23:57:08.616Z,18.20
2023-05-06T23:59:35.721Z,18.20
